KPOF/POF METAR and TAF weather

Enter ICAO airport designator
Station Type Date Time Source
KPOF METAR 2021/04/17 01:53 UTC NOAA

KPOF 170153Z AUTO 34003KT 10SM OVC070 13/10 A2991 RMK AO2 RAE35 SLP130 P0000 T01280100


Station Type Date Time Source
KPOF Decoded METAR 2021/04/17 01:53 UTC NOAA

POPLAR BLUFF MUN AIRPORT, MO, United States (KPOF) 36-46N 090-19W 100M
Apr 16, 2021 - 09:53 PM EDT / 2021.04.17 0153 UTC
Wind: from the NNW (340 degrees) at 3 MPH (3 KT):0
Visibility: 10 mile(s):0
Sky conditions: overcast
Precipitation last hour: A trace
Temperature: 55.0 F (12.8 C)
Dew Point: 50.0 F (10.0 C)
Relative Humidity: 83%
Pressure (altimeter): 29.91 in. Hg (1012 hPa)
ob: KPOF 170153Z AUTO 34003KT 10SM OVC070 13/10 A2991 RMK AO2 RAE35 SLP130 P0000 T01280100
cycle: 2

Station Type Date Time Source
KPOF TAF UTC NOAA

Error!

Example: see airport list